createdAt,value
2023-04-20T00:01:11.172Z,7.73
2023-04-20T00:03:39.708Z,6.23
2023-04-20T00:06:09.201Z,6.03
2023-04-20T00:08:37.593Z,6.80
2023-04-20T00:11:06.028Z,6.90
2023-04-20T00:13:34.460Z,5.30
2023-04-20T00:16:03.182Z,5.20
2023-04-20T00:18:33.008Z,6.00
2023-04-20T00:21:01.365Z,7.57
2023-04-20T00:23:29.761Z,5.97
2023-04-20T00:25:58.182Z,7.40
2023-04-20T00:28:26.572Z,8.03
2023-04-20T00:30:55.020Z,8.13
2023-04-20T00:33:23.505Z,5.87
2023-04-20T00:35:53.965Z,6.60
2023-04-20T00:38:22.379Z,5.57
2023-04-20T00:40:54.099Z,7.20
2023-04-20T00:43:23.209Z,8.63
2023-04-20T00:45:52.179Z,6.13
2023-04-20T00:48:21.049Z,6.03
2023-04-20T00:50:50.822Z,6.83
2023-04-20T00:53:21.126Z,7.13
2023-04-20T00:55:49.706Z,5.20
2023-04-20T00:58:18.053Z,5.07
2023-04-20T01:00:46.445Z,4.13
2023-04-20T01:03:15.147Z,5.63
2023-04-20T01:05:43.762Z,4.23
2023-04-20T01:08:12.199Z,4.40
2023-04-20T01:10:42.012Z,4.53
2023-04-20T01:13:10.413Z,7.17
2023-04-20T01:15:38.914Z,5.03
2023-04-20T01:18:07.377Z,4.60
2023-04-20T01:20:35.798Z,8.17
2023-04-20T01:23:05.666Z,6.90
2023-04-20T01:25:34.114Z,7.77
2023-04-20T01:28:02.631Z,4.07
2023-04-20T01:30:31.102Z,7.27
2023-04-20T01:32:59.570Z,5.03
2023-04-20T01:35:28.394Z,5.03
2023-04-20T01:37:56.856Z,5.13
2023-04-20T01:40:26.641Z,5.37
2023-04-20T01:42:55.045Z,4.30
2023-04-20T01:45:23.514Z,6.87
2023-04-20T01:47:51.982Z,7.07
2023-04-20T01:50:20.467Z,6.43
2023-04-20T01:52:48.876Z,5.07
2023-04-20T01:55:19.598Z,3.97
2023-04-20T01:57:49.949Z,6.10
2023-04-20T02:00:18.677Z,3.53
2023-04-20T02:02:47.192Z,5.63
2023-04-20T02:05:15.898Z,5.27
2023-04-20T02:07:44.346Z,4.97
2023-04-20T02:10:13.115Z,7.30
2023-04-20T02:12:41.685Z,5.80
2023-04-20T02:15:12.149Z,4.73
2023-04-20T02:17:41.148Z,4.07
2023-04-20T02:20:10.468Z,5.70
2023-04-20T02:22:39.020Z,5.13
2023-04-20T02:25:08.069Z,5.90
2023-04-20T02:27:36.490Z,3.57
2023-04-20T02:30:05.939Z,4.90
2023-04-20T02:32:36.023Z,5.60
2023-04-20T02:35:05.119Z,7.13
2023-04-20T02:37:33.631Z,5.73
2023-04-20T02:40:02.145Z,5.17
2023-04-20T02:42:30.754Z,7.07
2023-04-20T02:44:59.146Z,5.43
2023-04-20T02:47:27.564Z,5.57
2023-04-20T02:49:57.599Z,5.70
2023-04-20T02:52:26.040Z,5.50
2023-04-20T02:54:54.386Z,6.83
2023-04-20T02:57:22.930Z,6.93
2023-04-20T02:59:51.521Z,5.83
2023-04-20T03:02:20.248Z,5.40
2023-04-20T03:04:48.875Z,6.03
2023-04-20T03:07:18.999Z,5.50
2023-04-20T03:09:47.415Z,6.00
2023-04-20T03:12:15.798Z,6.17
2023-04-20T03:14:44.203Z,6.17
2023-04-20T03:17:12.631Z,7.73
2023-04-20T03:19:41.538Z,6.80
2023-04-20T03:22:10.079Z,7.70
2023-04-20T03:24:39.864Z,7.43
2023-04-20T03:27:08.340Z,10.20
2023-04-20T03:29:36.718Z,8.33
2023-04-20T03:32:05.729Z,9.20
2023-04-20T03:34:34.333Z,9.00
2023-04-20T03:37:02.732Z,6.87
2023-04-20T03:39:31.101Z,7.43
2023-04-20T03:42:00.931Z,5.67
2023-04-20T03:44:29.322Z,6.20
2023-04-20T03:46:57.693Z,6.67
2023-04-20T03:49:26.673Z,7.37
2023-04-20T03:51:55.036Z,7.77
2023-04-20T03:54:23.455Z,6.73
2023-04-20T03:56:51.941Z,6.67
2023-04-20T03:59:21.802Z,5.83
2023-04-20T04:01:50.264Z,5.83
2023-04-20T04:04:19.007Z,6.87
2023-04-20T04:06:47.616Z,6.93
2023-04-20T04:09:16.321Z,7.17
2023-04-20T04:11:44.996Z,10.00
2023-04-20T04:14:13.460Z,8.07
2023-04-20T04:16:43.314Z,6.97
2023-04-20T04:19:14.860Z,6.67
2023-04-20T04:21:43.212Z,5.60
2023-04-20T04:24:11.608Z,5.87
2023-04-20T04:26:40.088Z,7.27
2023-04-20T04:29:09.106Z,6.87
2023-04-20T04:31:37.590Z,6.33
2023-04-20T04:34:07.604Z,6.73
2023-04-20T04:36:36.780Z,6.30
2023-04-20T04:39:05.214Z,7.13
2023-04-20T04:41:33.786Z,7.37
2023-04-20T04:44:03.465Z,6.00
2023-04-20T04:46:32.303Z,6.20
2023-04-20T04:49:01.126Z,5.87
2023-04-20T04:51:31.767Z,7.90
2023-04-20T04:54:00.181Z,5.23
2023-04-20T04:56:28.641Z,5.37
2023-04-20T04:58:57.066Z,5.07
2023-04-20T05:01:25.527Z,6.03
2023-04-20T05:03:54.194Z,5.23
2023-04-20T05:06:22.800Z,7.27
2023-04-20T05:08:52.552Z,4.53
2023-04-20T05:11:21.026Z,5.77
2023-04-20T05:13:49.883Z,4.60
2023-04-20T05:16:18.434Z,4.57
2023-04-20T05:18:46.889Z,5.13
2023-04-20T05:21:15.334Z,4.27
2023-04-20T05:23:44.229Z,6.10
2023-04-20T05:26:14.005Z,8.00
2023-04-20T05:28:42.420Z,5.03
2023-04-20T05:31:10.824Z,4.93
2023-04-20T05:33:39.466Z,5.03
2023-04-20T05:36:10.853Z,4.70
2023-04-20T05:38:39.250Z,6.67
2023-04-20T05:41:07.789Z,5.27
2023-04-20T05:43:37.564Z,3.53
2023-04-20T05:46:06.576Z,8.43
2023-04-20T05:48:35.176Z,10.57
2023-04-20T05:51:03.650Z,9.47
2023-04-20T05:53:32.040Z,7.27
2023-04-20T05:56:00.424Z,4.60
2023-04-20T05:58:28.915Z,5.53
2023-04-20T06:00:58.688Z,5.63
2023-04-20T06:03:27.325Z,4.23
2023-04-20T06:05:55.797Z,3.57
2023-04-20T06:08:24.225Z,5.27
2023-04-20T06:10:55.821Z,5.13
2023-04-20T06:13:24.245Z,3.57
2023-04-20T06:15:52.965Z,6.20
2023-04-20T06:18:22.884Z,6.27
2023-04-20T06:20:51.318Z,4.97
2023-04-20T06:23:19.729Z,10.10
2023-04-20T06:25:48.090Z,6.17
2023-04-20T06:28:16.661Z,5.10
2023-04-20T06:30:45.165Z,7.10
2023-04-20T06:33:17.155Z,6.93
2023-04-20T06:35:46.944Z,6.27
2023-04-20T06:38:15.429Z,6.87
2023-04-20T06:40:43.768Z,6.13
2023-04-20T06:43:12.095Z,6.37
2023-04-20T06:45:40.487Z,5.10
2023-04-20T06:48:20.202Z,7.10
2023-04-20T06:50:57.701Z,6.30
2023-04-20T06:53:26.308Z,8.57
2023-04-20T06:55:55.835Z,11.03
2023-04-20T06:58:24.330Z,12.43
2023-04-20T07:00:52.751Z,18.90
2023-04-20T07:03:21.339Z,8.00
2023-04-20T07:05:49.864Z,6.80
2023-04-20T07:08:20.226Z,7.70
2023-04-20T07:10:48.615Z,7.53
2023-04-20T07:13:17.039Z,9.97
2023-04-20T07:15:46.865Z,8.33
2023-04-20T07:18:15.338Z,8.87
2023-04-20T07:20:43.851Z,8.90
2023-04-20T07:23:12.280Z,10.70
2023-04-20T07:25:43.244Z,12.53
2023-04-20T07:28:11.661Z,13.27
2023-04-20T07:30:40.062Z,9.93
2023-04-20T07:33:09.273Z,9.53
2023-04-20T07:35:37.805Z,10.90
2023-04-20T07:38:06.298Z,9.80
2023-04-20T07:40:34.703Z,7.83
2023-04-20T07:43:04.488Z,8.30
2023-04-20T07:45:32.889Z,10.50
2023-04-20T07:48:02.598Z,10.93
2023-04-20T07:50:31.125Z,9.37
2023-04-20T07:52:59.528Z,9.30
2023-04-20T07:55:27.926Z,8.37
2023-04-20T07:57:56.384Z,9.13
2023-04-20T08:00:26.771Z,12.33
2023-04-20T08:02:55.234Z,20.27
2023-04-20T08:05:24.535Z,11.20
2023-04-20T08:07:53.056Z,8.63
2023-04-20T08:10:21.731Z,12.27
2023-04-20T08:12:52.564Z,11.87
2023-04-20T08:15:21.322Z,11.30
2023-04-20T08:17:51.397Z,9.90
2023-04-20T08:20:19.950Z,13.97
2023-04-20T08:22:49.359Z,9.07
2023-04-20T08:25:18.191Z,15.20
2023-04-20T08:27:46.604Z,14.27
2023-04-20T08:30:15.409Z,15.23
2023-04-20T08:32:43.875Z,13.33
2023-04-20T08:35:13.806Z,10.10
2023-04-20T08:37:42.963Z,13.23
2023-04-20T08:40:12.059Z,14.67
2023-04-20T08:42:40.475Z,17.53
2023-04-20T08:45:09.293Z,21.10
2023-04-20T08:47:38.774Z,12.93
2023-04-20T08:50:07.873Z,14.17
2023-04-20T08:52:39.481Z,17.40
2023-04-20T08:55:08.790Z,14.53
2023-04-20T08:57:37.226Z,14.90
2023-04-20T09:00:07.855Z,17.23
2023-04-20T09:02:36.494Z,15.33
2023-04-20T09:05:05.867Z,20.20
2023-04-20T09:07:34.379Z,61.73
2023-04-20T09:10:04.725Z,20.03
2023-04-20T09:12:42.807Z,23.10
2023-04-20T09:15:11.962Z,18.73
2023-04-20T09:17:41.408Z,19.67
2023-04-20T09:20:11.371Z,19.40
2023-04-20T09:22:40.286Z,17.07
2023-04-20T09:25:16.838Z,15.40
2023-04-20T09:27:45.269Z,16.73
2023-04-20T09:30:14.016Z,15.10
2023-04-20T09:32:42.650Z,15.37
2023-04-20T09:35:11.236Z,13.03
2023-04-20T09:37:48.636Z,15.03
2023-04-20T09:40:19.228Z,17.97
2023-04-20T09:42:49.155Z,17.13
2023-04-20T09:45:18.050Z,15.60
2023-04-20T09:47:46.659Z,17.57
2023-04-20T09:50:26.687Z,15.67
2023-04-20T09:52:58.547Z,15.77
2023-04-20T09:55:28.558Z,15.40
2023-04-20T09:57:57.155Z,13.87
2023-04-20T10:00:25.642Z,15.97
2023-04-20T10:02:54.193Z,18.53
2023-04-20T10:05:34.000Z,18.53
2023-04-20T10:08:02.711Z,15.23
2023-04-20T10:10:32.556Z,14.43
2023-04-20T10:13:02.135Z,16.40
2023-04-20T10:15:39.948Z,17.23
2023-04-20T10:18:21.127Z,16.37
2023-04-20T10:20:49.654Z,19.47
2023-04-20T10:23:19.801Z,19.00
2023-04-20T10:26:00.674Z,21.03
2023-04-20T10:28:40.686Z,18.60
2023-04-20T10:31:13.294Z,18.23
2023-04-20T10:33:50.713Z,15.93
2023-04-20T10:36:29.403Z,29.03
2023-04-20T10:38:57.842Z,19.73
2023-04-20T10:41:27.612Z,20.83
2023-04-20T10:43:55.978Z,17.77
2023-04-20T10:46:25.106Z,19.17
2023-04-20T10:48:54.336Z,20.33
2023-04-20T10:51:22.693Z,17.07
2023-04-20T10:54:05.020Z,19.63
2023-04-20T10:56:42.405Z,17.43
2023-04-20T10:59:11.626Z,19.50
2023-04-20T11:01:41.022Z,20.23
2023-04-20T11:04:10.508Z,19.60
2023-04-20T11:06:39.536Z,18.17
2023-04-20T11:09:19.606Z,16.77
2023-04-20T11:11:59.454Z,18.70
2023-04-20T11:14:28.045Z,17.53
2023-04-20T11:16:56.842Z,23.17
2023-04-20T11:19:26.493Z,18.03
2023-04-20T11:21:55.156Z,16.47
2023-04-20T11:24:24.230Z,19.50
2023-04-20T11:26:54.578Z,16.33
2023-04-20T11:29:30.226Z,17.17
2023-04-20T11:31:59.171Z,15.60
2023-04-20T11:34:27.727Z,17.60
2023-04-20T11:36:57.049Z,16.90
2023-04-20T11:39:26.429Z,15.07
2023-04-20T11:41:56.652Z,13.83
2023-04-20T11:44:25.996Z,17.03
2023-04-20T11:46:54.739Z,51.77
2023-04-20T11:49:23.719Z,14.63
2023-04-20T11:51:52.436Z,15.53
2023-04-20T11:54:21.859Z,14.13
2023-04-20T11:56:50.372Z,16.73
2023-04-20T11:59:21.160Z,14.13
2023-04-20T12:01:50.022Z,14.40
2023-04-20T12:04:18.664Z,13.37
2023-04-20T12:06:47.294Z,15.23
2023-04-20T12:09:15.937Z,14.80
2023-04-20T12:11:44.671Z,13.33
2023-04-20T12:14:13.098Z,15.30
2023-04-20T12:16:43.005Z,15.07
2023-04-20T12:19:11.365Z,15.30
2023-04-20T12:21:39.791Z,14.50
2023-04-20T12:24:08.975Z,14.27
2023-04-20T12:26:38.830Z,12.73
2023-04-20T12:29:09.353Z,14.10
2023-04-20T12:31:38.154Z,11.57
2023-04-20T12:34:08.057Z,13.43
2023-04-20T12:36:36.664Z,12.53
2023-04-20T12:39:05.269Z,14.30
2023-04-20T12:41:34.518Z,14.60
2023-04-20T12:44:05.831Z,12.07
2023-04-20T12:46:35.685Z,13.03
2023-04-20T12:49:04.196Z,13.30
2023-04-20T12:51:33.992Z,13.37
2023-04-20T12:54:02.455Z,12.87
2023-04-20T12:56:30.894Z,13.83
2023-04-20T12:58:59.299Z,13.27
2023-04-20T13:01:27.802Z,13.23
2023-04-20T13:03:56.675Z,10.50
2023-04-20T13:06:25.210Z,12.40
2023-04-20T13:08:55.009Z,14.53
2023-04-20T13:11:24.167Z,12.13
2023-04-20T13:13:53.829Z,11.10
2023-04-20T13:16:22.328Z,14.13
2023-04-20T13:18:50.921Z,12.50
2023-04-20T13:21:19.336Z,14.10
2023-04-20T13:23:47.785Z,14.90
2023-04-20T13:26:17.638Z,13.67
2023-04-20T13:28:46.038Z,13.47
2023-04-20T13:31:14.445Z,12.27
2023-04-20T13:33:42.830Z,13.83
2023-04-20T13:36:11.508Z,12.70
2023-04-20T13:38:39.948Z,16.13
2023-04-20T13:41:08.314Z,13.07
2023-04-20T13:43:38.062Z,12.70
2023-04-20T13:46:06.556Z,13.13
2023-04-20T13:48:34.972Z,9.70
2023-04-20T13:51:03.310Z,11.70
2023-04-20T13:53:31.647Z,11.27
2023-04-20T13:56:00.097Z,13.27
2023-04-20T13:58:28.990Z,10.57
2023-04-20T14:00:58.837Z,15.97
2023-04-20T14:03:27.503Z,12.10
2023-04-20T14:05:56.049Z,12.27
2023-04-20T14:08:24.393Z,10.27
2023-04-20T14:10:52.764Z,10.33
2023-04-20T14:13:21.143Z,16.53
2023-04-20T14:15:49.649Z,13.03
2023-04-20T14:18:19.401Z,9.03
2023-04-20T14:20:52.206Z,14.37
2023-04-20T14:23:20.695Z,9.43
2023-04-20T14:25:49.066Z,12.53
2023-04-20T14:28:17.842Z,10.57
2023-04-20T14:30:46.410Z,12.03
2023-04-20T14:33:15.148Z,12.07
2023-04-20T14:35:46.313Z,9.60
2023-04-20T14:38:14.825Z,13.70
2023-04-20T14:40:43.245Z,12.30
2023-04-20T14:43:11.661Z,10.67
2023-04-20T14:45:41.824Z,11.00
2023-04-20T14:48:10.249Z,10.60
2023-04-20T14:50:38.765Z,13.30
2023-04-20T14:53:08.555Z,10.63
2023-04-20T14:55:37.072Z,12.60
2023-04-20T14:58:05.453Z,12.57
2023-04-20T15:00:34.055Z,10.87
2023-04-20T15:03:02.759Z,11.23
2023-04-20T15:05:31.625Z,13.77
2023-04-20T15:08:00.142Z,11.73
2023-04-20T15:10:30.037Z,12.63
2023-04-20T15:12:58.491Z,10.40
2023-04-20T15:15:37.678Z,13.50
2023-04-20T15:18:09.946Z,11.03
2023-04-20T15:20:38.390Z,12.33
2023-04-20T15:23:06.752Z,15.80
2023-04-20T15:25:36.554Z,13.33
2023-04-20T15:28:04.969Z,14.37
2023-04-20T15:30:33.374Z,14.53
2023-04-20T15:33:05.242Z,14.63
2023-04-20T15:35:34.104Z,12.10
2023-04-20T15:38:02.506Z,11.27
2023-04-20T15:40:31.380Z,12.03
2023-04-20T15:43:02.849Z,12.30
2023-04-20T15:45:31.414Z,13.50
2023-04-20T15:48:00.900Z,12.60
2023-04-20T15:50:29.491Z,12.57
2023-04-20T15:52:57.899Z,12.20
2023-04-20T15:55:26.438Z,11.47
2023-04-20T15:57:58.089Z,12.13
2023-04-20T16:00:28.274Z,12.77
2023-04-20T16:02:56.848Z,10.60
2023-04-20T16:05:26.862Z,13.30
2023-04-20T16:07:55.747Z,11.93
2023-04-20T16:10:24.246Z,10.23
2023-04-20T16:12:52.731Z,12.77
2023-04-20T16:15:21.198Z,10.33
2023-04-20T16:17:51.054Z,9.83
2023-04-20T16:20:19.441Z,9.60
2023-04-20T16:22:47.768Z,9.83
2023-04-20T16:25:22.717Z,8.90
2023-04-20T16:27:51.619Z,11.53
2023-04-20T16:30:20.254Z,11.47
2023-04-20T16:32:48.784Z,12.67
2023-04-20T16:35:18.642Z,13.73
2023-04-20T16:37:47.703Z,11.27
2023-04-20T16:40:16.067Z,13.40
2023-04-20T16:42:44.497Z,13.27
2023-04-20T16:45:12.933Z,11.73
2023-04-20T16:47:41.392Z,15.20
2023-04-20T16:50:10.170Z,14.23
2023-04-20T16:52:39.929Z,12.90
2023-04-20T16:55:08.991Z,14.13
2023-04-20T16:57:37.594Z,14.40
2023-04-20T17:00:08.598Z,12.93
2023-04-20T17:02:37.535Z,14.13
2023-04-20T17:05:06.764Z,15.53
2023-04-20T17:07:36.378Z,10.63
2023-04-20T17:10:06.743Z,10.80
2023-04-20T17:12:35.175Z,9.20
2023-04-20T17:15:03.699Z,10.30
2023-04-20T17:17:32.956Z,8.10
2023-04-20T17:20:01.553Z,8.93
2023-04-20T17:22:29.941Z,6.53
2023-04-20T17:24:58.312Z,5.03
2023-04-20T17:27:28.163Z,4.67
2023-04-20T17:29:57.655Z,6.63
2023-04-20T17:32:26.846Z,4.37
2023-04-20T17:34:55.360Z,5.00
2023-04-20T17:37:23.955Z,3.77
2023-04-20T17:39:52.342Z,3.63
2023-04-20T17:42:20.729Z,11.90
2023-04-20T17:44:50.469Z,7.57
2023-04-20T17:47:18.907Z,5.37
2023-04-20T17:49:47.307Z,4.77
2023-04-20T17:52:19.444Z,7.07
2023-04-20T17:54:47.875Z,5.10
2023-04-20T17:57:16.395Z,4.90
2023-04-20T17:59:44.783Z,9.60
2023-04-20T18:02:14.694Z,4.90
2023-04-20T18:04:43.677Z,5.10
2023-04-20T18:07:13.178Z,4.53
2023-04-20T18:09:43.254Z,4.57
2023-04-20T18:12:11.736Z,5.87
2023-04-20T18:14:41.222Z,6.03
2023-04-20T18:17:09.662Z,7.03
2023-04-20T18:19:40.935Z,5.67
2023-04-20T18:22:09.724Z,5.60
2023-04-20T18:24:38.091Z,7.73
2023-04-20T18:27:06.522Z,4.20
2023-04-20T18:29:35.300Z,6.83
2023-04-20T18:32:03.888Z,4.93
2023-04-20T18:34:32.411Z,9.03
2023-04-20T18:37:02.231Z,28.13
2023-04-20T18:39:30.938Z,7.93
2023-04-20T18:41:59.284Z,7.00
2023-04-20T18:44:28.404Z,5.70
2023-04-20T18:46:56.964Z,5.13
2023-04-20T18:49:25.676Z,5.93
2023-04-20T18:51:54.143Z,5.13
2023-04-20T18:54:23.930Z,7.80
2023-04-20T18:56:54.674Z,5.93
2023-04-20T18:59:24.654Z,6.57
2023-04-20T19:01:53.134Z,8.77
2023-04-20T19:04:22.819Z,5.40
2023-04-20T19:06:51.492Z,5.77
2023-04-20T19:09:19.959Z,8.50
2023-04-20T19:11:49.777Z,5.40
2023-04-20T19:14:18.450Z,8.17
2023-04-20T19:16:47.164Z,8.47
2023-04-20T19:19:15.638Z,6.93
2023-04-20T19:21:44.063Z,7.30
2023-04-20T19:24:12.442Z,7.10
2023-04-20T19:26:40.854Z,6.13
2023-04-20T19:29:12.315Z,7.73
2023-04-20T19:31:42.269Z,7.97
2023-04-20T19:34:13.318Z,6.67
2023-04-20T19:36:41.877Z,7.87
2023-04-20T19:39:10.266Z,7.23
2023-04-20T19:41:38.743Z,7.83
2023-04-20T19:44:09.792Z,8.17
2023-04-20T19:46:40.653Z,8.93
2023-04-20T19:49:09.144Z,6.13
2023-04-20T19:51:37.579Z,8.17
2023-04-20T19:54:06.070Z,9.53
2023-04-20T19:56:34.761Z,8.13
2023-04-20T19:59:03.197Z,8.53
2023-04-20T20:01:31.667Z,10.07
2023-04-20T20:04:01.602Z,10.43
2023-04-20T20:06:30.187Z,7.97
2023-04-20T20:08:58.962Z,12.83
2023-04-20T20:11:27.474Z,12.97
2023-04-20T20:13:55.881Z,9.20
2023-04-20T20:16:24.359Z,11.27
2023-04-20T20:18:52.762Z,10.10
2023-04-20T20:21:22.541Z,10.00
2023-04-20T20:23:50.916Z,10.03
2023-04-20T20:26:20.045Z,12.83
2023-04-20T20:28:48.472Z,10.53
2023-04-20T20:31:16.925Z,11.70
2023-04-20T20:33:45.357Z,11.43
2023-04-20T20:36:13.787Z,12.63
2023-04-20T20:38:43.667Z,11.10
2023-04-20T20:41:13.660Z,11.80
2023-04-20T20:43:42.662Z,11.60
2023-04-20T20:46:11.220Z,15.43
2023-04-20T20:48:39.616Z,13.47
2023-04-20T20:51:08.074Z,14.77
2023-04-20T20:53:36.454Z,12.43
2023-04-20T20:56:06.607Z,11.93
2023-04-20T20:58:34.992Z,13.03
2023-04-20T21:01:03.436Z,16.10
2023-04-20T21:03:32.095Z,13.30
2023-04-20T21:06:00.823Z,17.50
2023-04-20T21:08:29.203Z,13.53
2023-04-20T21:10:57.610Z,14.33
2023-04-20T21:13:27.513Z,16.20
2023-04-20T21:15:55.927Z,15.87
2023-04-20T21:18:24.265Z,13.93
2023-04-20T21:20:52.637Z,15.80
2023-04-20T21:23:21.012Z,16.23
2023-04-20T21:25:49.414Z,13.93
2023-04-20T21:28:17.774Z,15.50
2023-04-20T21:30:47.529Z,16.03
2023-04-20T21:33:15.958Z,15.40
2023-04-20T21:35:44.330Z,15.63
2023-04-20T21:38:12.735Z,16.97
2023-04-20T21:40:41.100Z,16.23
2023-04-20T21:43:09.513Z,16.50
2023-04-20T21:45:37.941Z,16.50
2023-04-20T21:48:07.983Z,19.17
2023-04-20T21:50:38.257Z,18.33
2023-04-20T21:53:06.703Z,18.03
2023-04-20T21:55:35.063Z,17.53
2023-04-20T21:58:03.487Z,18.40
2023-04-20T22:00:31.891Z,18.27
2023-04-20T22:03:00.435Z,17.17
2023-04-20T22:05:30.435Z,18.93
2023-04-20T22:07:59.002Z,19.27
2023-04-20T22:10:27.553Z,19.63
2023-04-20T22:12:55.909Z,17.63
2023-04-20T22:15:25.498Z,20.97
2023-04-20T22:17:53.985Z,20.17
2023-04-20T22:20:22.479Z,22.10
2023-04-20T22:22:52.271Z,21.20
2023-04-20T22:25:20.824Z,23.73
2023-04-20T22:27:49.269Z,21.10
2023-04-20T22:30:17.821Z,23.10
2023-04-20T22:32:46.370Z,22.77
2023-04-20T22:35:14.807Z,19.60
2023-04-20T22:37:43.255Z,22.03
2023-04-20T22:40:14.180Z,20.40
2023-04-20T22:42:42.547Z,20.47
2023-04-20T22:45:11.841Z,24.87
2023-04-20T22:47:40.548Z,19.93
2023-04-20T22:50:12.222Z,21.73
2023-04-20T22:52:40.646Z,22.53
2023-04-20T22:55:10.127Z,21.73
2023-04-20T22:57:39.953Z,22.67
2023-04-20T23:00:10.727Z,22.73
2023-04-20T23:02:39.460Z,22.73
2023-04-20T23:05:08.457Z,21.70
2023-04-20T23:07:37.513Z,18.83
2023-04-20T23:10:06.191Z,21.87
2023-04-20T23:12:34.650Z,20.77
2023-04-20T23:15:05.999Z,22.00
2023-04-20T23:17:34.409Z,19.40
2023-04-20T23:20:03.033Z,20.70
2023-04-20T23:22:31.707Z,23.90
2023-04-20T23:25:00.101Z,19.40
2023-04-20T23:27:28.526Z,23.97
2023-04-20T23:29:56.902Z,21.57
2023-04-20T23:32:26.837Z,21.50
2023-04-20T23:34:55.268Z,21.67
2023-04-20T23:37:23.734Z,23.87
2023-04-20T23:39:52.089Z,20.47
2023-04-20T23:42:20.557Z,22.70
2023-04-20T23:44:48.992Z,20.90
2023-04-20T23:47:17.665Z,24.03
2023-04-20T23:49:47.419Z,22.27
2023-04-20T23:52:15.780Z,23.33
2023-04-20T23:54:44.207Z,19.73
2023-04-20T23:57:12.567Z,25.47
2023-04-20T23:59:41.065Z,21.63
